Time;durP1;ratioP1;P1;durP2;ratioP2;P2;SDS_P1;SDS_P2;PMS_P1;PMS_P2;Temp;Humidity;BMP_temperature;BMP_pressure;BME280_temperature;BME280_humidity;BME280_pressure;Samples;Min_cycle;Max_cycle;Signal;HPM_P1;HPM_P2
2022/03/30 00:01:08;;;;;;;16.53;12.87;;;;;;;13.32;44.15;94058.34;5056568;28;20577;-76
2022/03/30 00:03:33;;;;;;;16.00;13.50;;;;;;;13.60;43.30;94047.19;5050370;28;20457;-76
2022/03/30 00:05:59;;;;;;;18.93;13.80;;;;;;;13.70;43.97;94046.63;5036840;28;20265;-76
2022/03/30 00:08:25;;;;;;;20.07;13.20;;;;;;;13.57;43.41;94048.47;5044794;28;20519;-76
2022/03/30 00:10:51;;;;;;;21.57;14.50;;;;;;;13.44;44.16;94044.22;5048818;28;20237;-76
2022/03/30 00:13:17;;;;;;;18.30;14.20;;;;;;;13.12;44.39;94046.28;5044103;28;20175;-76
2022/03/30 00:15:43;;;;;;;16.93;15.10;;;;;;;13.16;44.52;94044.81;5046959;28;20183;-75
2022/03/30 00:18:08;;;;;;;17.73;13.57;;;;;;;13.28;44.97;94036.97;5025754;28;20514;-76
2022/03/30 00:20:34;;;;;;;23.73;15.17;;;;;;;13.25;44.88;94047.94;5019535;28;20246;-75
2022/03/30 00:22:59;;;;;;;17.57;13.50;;;;;;;13.17;44.71;94038.53;5032944;28;20298;-75
2022/03/30 00:25:25;;;;;;;23.63;13.60;;;;;;;13.34;44.08;94037.94;5036579;28;20210;-76
2022/03/30 00:27:50;;;;;;;17.10;13.87;;;;;;;13.51;44.04;94043.28;5063809;28;20186;-76
2022/03/30 00:30:18;;;;;;;18.43;14.53;;;;;;;13.13;44.78;94028.69;5047518;28;20206;-75
2022/03/30 00:32:44;;;;;;;18.47;15.40;;;;;;;12.92;44.91;94036.09;5062413;28;20790;-76
2022/03/30 00:35:10;;;;;;;20.33;14.97;;;;;;;13.07;44.64;94033.84;5050241;28;20434;-75
2022/03/30 00:37:37;;;;;;;18.50;14.93;;;;;;;12.93;45.45;94029.78;5047884;28;20172;-75
2022/03/30 00:40:05;;;;;;;23.00;14.60;;;;;;;12.86;45.49;94031.69;5040302;28;20900;-75
2022/03/30 00:42:31;;;;;;;24.53;14.80;;;;;;;12.92;45.90;94035.25;5032497;28;20953;-75
2022/03/30 00:44:56;;;;;;;22.20;15.00;;;;;;;12.85;45.47;94030.13;5030082;28;20433;-75
2022/03/30 00:47:25;;;;;;;18.97;14.97;;;;;;;12.61;46.72;94030.00;5047511;28;20228;-76
2022/03/30 00:49:52;;;;;;;21.90;15.33;;;;;;;12.61;46.22;94042.34;5040706;28;20934;-75
2022/03/30 00:52:20;;;;;;;17.67;14.60;;;;;;;12.67;46.32;94038.81;5045840;28;20486;-75
2022/03/30 00:54:47;;;;;;;25.33;15.13;;;;;;;12.33;46.60;94048.13;5068115;28;20417;-76
2022/03/30 00:57:14;;;;;;;19.50;14.13;;;;;;;12.61;46.00;94042.34;5067326;28;20432;-76
2022/03/30 00:59:41;;;;;;;19.27;15.13;;;;;;;12.47;46.99;94039.88;5058432;28;20476;-75
2022/03/30 01:02:07;;;;;;;19.70;14.10;;;;;;;12.45;46.80;94028.81;5047936;28;20414;-75
2022/03/30 01:04:33;;;;;;;21.63;14.47;;;;;;;12.53;46.24;94032.94;5062788;28;20473;-75
2022/03/30 01:06:59;;;;;;;21.80;14.90;;;;;;;12.43;47.02;94033.47;5046419;28;20422;-75
2022/03/30 01:09:25;;;;;;;17.57;13.53;;;;;;;12.64;46.31;94021.69;5052754;28;20183;-76
2022/03/30 01:11:53;;;;;;;20.33;14.27;;;;;;;12.79;46.28;94023.94;5035386;28;20429;-75
2022/03/30 01:14:19;;;;;;;20.73;14.50;;;;;;;12.64;46.04;94023.53;5049562;28;20437;-75
2022/03/30 01:16:44;;;;;;;19.30;14.17;;;;;;;12.92;45.50;94017.69;5046565;28;20563;-76
2022/03/30 01:19:11;;;;;;;21.73;14.67;;;;;;;12.61;46.43;94018.72;5051312;28;20927;-76
2022/03/30 01:21:39;;;;;;;19.27;14.30;;;;;;;12.94;45.93;94013.03;5039330;28;20175;-76
2022/03/30 01:24:06;;;;;;;17.60;14.10;;;;;;;12.48;46.52;94020.50;5053711;28;20474;-76
2022/03/30 01:26:32;;;;;;;20.00;14.73;;;;;;;12.68;46.83;94020.22;5046168;28;20417;-76
2022/03/30 01:28:58;;;;;;;21.73;13.23;;;;;;;12.90;46.19;94011.88;5046064;28;20434;-76
2022/03/30 01:34:09;;;;;;;16.83;13.90;;;;;;;12.53;47.30;94025.06;5046984;28;20494;-76
2022/03/30 01:36:35;;;;;;;17.40;14.73;;;;;;;12.21;47.06;94024.47;5066088;28;20504;-76
2022/03/30 01:39:06;;;;;;;18.03;14.30;;;;;;;12.40;46.77;94017.38;5048201;28;20508;-76
2022/03/30 01:41:32;;;;;;;18.77;14.67;;;;;;;12.44;47.10;94031.66;5037671;28;20500;-76
2022/03/30 01:43:58;;;;;;;19.03;14.07;;;;;;;12.53;46.93;94030.31;5042772;28;20540;-76
2022/03/30 01:46:24;;;;;;;17.63;15.63;;;;;;;12.37;46.87;94033.53;5046285;28;20418;-76
2022/03/30 01:48:50;;;;;;;22.77;15.17;;;;;;;12.52;47.09;94030.53;5074997;28;20230;-76
2022/03/30 01:51:16;;;;;;;22.57;15.70;;;;;;;12.53;47.06;94032.16;5027868;28;20288;-76
2022/03/30 01:53:41;;;;;;;21.43;14.67;;;;;;;12.44;47.47;94034.28;5042992;28;20486;-76
2022/03/30 01:56:07;;;;;;;20.03;16.53;;;;;;;12.74;46.65;94038.75;5057442;28;20190;-75
2022/03/30 01:58:32;;;;;;;18.63;15.23;;;;;;;12.50;46.12;94025.50;5059829;28;20456;-76
2022/03/30 02:00:58;;;;;;;16.40;14.63;;;;;;;12.46;47.03;94030.44;5065821;28;20178;-76
2022/03/30 02:03:25;;;;;;;19.23;14.70;;;;;;;12.21;47.78;94041.00;5065773;28;20565;-76
2022/03/30 02:05:52;;;;;;;20.07;14.83;;;;;;;12.44;47.31;94034.28;5042974;28;20449;-75
2022/03/30 02:08:18;;;;;;;21.30;14.97;;;;;;;12.40;47.65;94041.78;5048711;28;20421;-74
2022/03/30 02:10:43;;;;;;;20.27;14.70;;;;;;;12.39;47.26;94045.44;5034957;28;20429;-75
2022/03/30 02:13:10;;;;;;;25.37;17.40;;;;;;;11.72;49.41;94051.38;5053573;28;20549;-75
2022/03/30 02:15:35;;;;;;;19.60;15.50;;;;;;;11.75;49.07;94051.94;5045835;28;20178;-75
2022/03/30 02:18:05;;;;;;;23.30;14.63;;;;;;;11.99;48.19;94048.50;5045649;28;20422;-75
2022/03/30 02:20:31;;;;;;;27.53;16.10;;;;;;;11.98;48.38;94053.97;5027666;28;20186;-76
2022/03/30 02:22:56;;;;;;;23.07;15.47;;;;;;;11.97;48.21;94049.72;5038437;28;20461;-76
2022/03/30 02:25:22;;;;;;;18.43;15.47;;;;;;;11.98;48.95;94054.75;5043390;28;20179;-76
2022/03/30 02:27:48;;;;;;;20.37;14.60;;;;;;;11.87;48.48;94056.25;5046216;28;20179;-75
2022/03/30 02:30:14;;;;;;;21.53;16.00;;;;;;;12.02;48.50;94052.50;5045612;28;20885;-75
2022/03/30 02:32:40;;;;;;;19.77;14.57;;;;;;;12.13;47.92;94049.16;5027946;28;20241;-75
2022/03/30 02:35:06;;;;;;;19.13;15.57;;;;;;;11.94;48.73;94058.03;5027606;28;20315;-75
2022/03/30 02:37:32;;;;;;;22.83;16.23;;;;;;;12.10;48.01;94054.84;5027702;28;20477;-75
2022/03/30 02:39:57;;;;;;;20.00;15.20;;;;;;;12.48;47.03;94057.25;5027800;28;20519;-75
2022/03/30 02:42:24;;;;;;;18.03;16.03;;;;;;;12.22;48.26;94053.09;5045388;28;20172;-75
2022/03/30 02:44:49;;;;;;;19.73;14.87;;;;;;;12.27;46.98;94052.44;5045565;28;20311;-75
2022/03/30 02:47:14;;;;;;;19.67;15.67;;;;;;;12.09;48.23;94053.25;5045563;28;20410;-75
2022/03/30 02:49:40;;;;;;;21.07;14.03;;;;;;;11.45;49.96;94045.53;5027581;28;20635;-75
2022/03/30 02:52:06;;;;;;;19.83;14.67;;;;;;;11.65;49.40;94050.63;5049175;28;20221;-75
2022/03/30 02:54:32;;;;;;;18.07;15.97;;;;;;;11.80;49.33;94055.53;5018394;28;20188;-75
2022/03/30 02:56:58;;;;;;;31.03;15.97;;;;;;;11.69;49.56;94058.84;5025511;28;20438;-75
2022/03/30 02:59:24;;;;;;;26.23;15.70;;;;;;;11.88;48.95;94052.63;5008035;28;20203;-75
2022/03/30 03:01:49;;;;;;;17.70;14.87;;;;;;;12.28;47.62;94046.97;5026833;28;20395;-76
2022/03/30 03:04:15;;;;;;;18.13;12.90;;;;;;;11.77;49.00;94050.69;5040380;28;20311;-75
2022/03/30 03:06:41;;;;;;;18.60;15.30;;;;;;;12.11;48.28;94040.72;5028769;28;20236;-75
2022/03/30 03:09:08;;;;;;;21.53;15.37;;;;;;;11.73;48.95;94046.91;5011380;28;20176;-76
2022/03/30 03:11:34;;;;;;;19.03;13.83;;;;;;;11.65;49.63;94042.75;5028857;28;20418;-75
2022/03/30 03:14:05;;;;;;;20.83;15.80;;;;;;;12.27;47.58;94047.19;5034087;28;20433;-75
2022/03/30 03:16:32;;;;;;;20.30;14.73;;;;;;;11.98;48.83;94039.03;5036053;28;20443;-75
2022/03/30 03:18:57;;;;;;;19.97;15.73;;;;;;;12.02;48.61;94039.41;5010893;28;20744;-75
2022/03/30 03:21:23;;;;;;;22.77;16.03;;;;;;;11.49;50.17;94049.31;5010926;28;20442;-75
2022/03/30 03:23:48;;;;;;;21.70;15.60;;;;;;;11.69;49.25;94043.13;5024411;28;20191;-75
2022/03/30 03:26:14;;;;;;;20.50;16.00;;;;;;;12.17;48.86;94045.09;5011140;28;20176;-75
2022/03/30 03:28:40;;;;;;;23.90;13.10;;;;;;;11.61;49.86;94036.34;5024473;28;20572;-75
2022/03/30 03:31:05;;;;;;;21.60;15.30;;;;;;;11.59;49.93;94040.19;5028756;28;20175;-75
2022/03/30 03:33:31;;;;;;;21.97;15.77;;;;;;;11.68;49.65;94031.03;5042251;28;20183;-75
2022/03/30 03:35:57;;;;;;;17.83;14.20;;;;;;;12.04;48.71;94034.72;5043850;28;20179;-75
2022/03/30 03:38:22;;;;;;;23.43;16.70;;;;;;;11.67;50.40;94039.94;5010897;28;20427;-75
2022/03/30 03:40:48;;;;;;;22.20;16.13;;;;;;;11.96;49.39;94035.03;5028249;28;20192;-75
2022/03/30 03:43:13;;;;;;;21.27;14.30;;;;;;;11.95;48.90;94033.41;5042369;28;20199;-75
2022/03/30 03:45:39;;;;;;;21.37;14.00;;;;;;;11.81;49.91;94038.75;5028132;28;20188;-75
2022/03/30 03:48:05;;;;;;;20.17;16.60;;;;;;;11.24;51.50;94035.44;5040335;28;20202;-75
2022/03/30 03:50:32;;;;;;;21.33;17.53;;;;;;;11.56;50.70;94038.00;5047785;28;20403;-75
2022/03/30 03:52:57;;;;;;;21.83;16.47;;;;;;;11.63;50.47;94029.06;5045704;28;20548;-75
2022/03/30 03:55:23;;;;;;;18.57;15.00;;;;;;;11.83;49.59;94041.97;5059669;28;20426;-75
2022/03/30 03:57:50;;;;;;;23.07;15.67;;;;;;;11.81;49.68;94028.28;5030197;28;20180;-74
2022/03/30 04:00:16;;;;;;;15.80;13.63;;;;;;;11.42;50.80;94026.81;5040945;28;20179;-75
2022/03/30 04:02:42;;;;;;;19.87;16.77;;;;;;;11.47;50.70;94025.16;5047367;28;20421;-75
2022/03/30 04:05:09;;;;;;;25.93;15.57;;;;;;;11.70;49.72;94024.56;5056666;28;20438;-75
2022/03/30 04:07:35;;;;;;;22.20;15.97;;;;;;;11.49;50.55;94023.13;5048526;28;20168;-75
2022/03/30 04:10:01;;;;;;;20.07;17.87;;;;;;;11.67;50.68;94024.19;5029937;28;20426;-75
2022/03/30 04:12:27;;;;;;;19.30;17.00;;;;;;;11.69;50.21;94032.66;5042833;28;20433;-75
2022/03/30 04:14:52;;;;;;;24.40;17.73;;;;;;;11.72;49.80;94027.78;5040605;28;20480;-75
2022/03/30 04:17:18;;;;;;;19.97;16.60;;;;;;;11.91;50.00;94025.19;5046900;28;20182;-75
2022/03/30 04:19:44;;;;;;;29.33;20.50;;;;;;;11.36;51.11;94025.84;5029070;28;20191;-75
2022/03/30 04:22:09;;;;;;;23.47;18.90;;;;;;;11.43;50.89;94038.91;5029539;28;20179;-75
2022/03/30 04:24:35;;;;;;;20.57;17.53;;;;;;;11.53;50.90;94034.81;5029412;28;20277;-75
2022/03/30 04:27:00;;;;;;;38.10;19.07;;;;;;;11.64;50.66;94041.13;5029029;28;20187;-75
2022/03/30 04:29:26;;;;;;;28.87;19.37;;;;;;;11.58;50.36;94036.75;5047186;28;20184;-76
2022/03/30 04:31:52;;;;;;;32.30;19.87;;;;;;;11.04;52.02;94040.81;5061405;28;20255;-75
2022/03/30 04:34:18;;;;;;;27.73;18.43;;;;;;;11.61;50.78;94041.59;5028829;28;20231;-74
2022/03/30 04:36:43;;;;;;;26.10;18.10;;;;;;;11.99;50.13;94038.03;5052334;28;20421;-75
2022/03/30 04:39:08;;;;;;;24.83;14.60;;;;;;;11.93;49.40;94032.84;5060383;28;20186;-75
2022/03/30 04:41:34;;;;;;;19.60;15.13;;;;;;;11.43;50.79;94038.91;5054266;28;20185;-75
2022/03/30 04:44:01;;;;;;;20.77;13.97;;;;;;;10.87;51.96;94027.41;5066721;28;20673;-75
2022/03/30 04:46:26;;;;;;;14.33;12.90;;;;;;;10.68;53.16;94039.59;5052859;28;20421;-75
2022/03/30 04:48:52;;;;;;;26.03;20.23;;;;;;;11.24;51.79;94035.44;5056070;28;20426;-75
2022/03/30 04:51:17;;;;;;;24.90;16.87;;;;;;;11.26;51.37;94033.41;5062541;28;20256;-75
2022/03/30 04:53:43;;;;;;;19.53;14.40;;;;;;;11.18;51.69;94023.19;5051377;28;20215;-75
2022/03/30 04:56:09;;;;;;;25.73;16.87;;;;;;;11.25;51.91;94023.94;5060151;28;20185;-75
2022/03/30 04:58:34;;;;;;;19.37;16.47;;;;;;;11.45;51.47;94037.69;5027951;28;20183;-75
2022/03/30 05:01:00;;;;;;;26.30;16.33;;;;;;;11.62;50.94;94047.63;5046707;28;20430;-75
2022/03/30 05:03:25;;;;;;;30.43;16.77;;;;;;;11.73;50.64;94046.91;5066051;28;20194;-75
2022/03/30 05:05:51;;;;;;;28.80;17.13;;;;;;;11.87;50.43;94045.75;5052947;28;20663;-74
2022/03/30 05:08:17;;;;;;;23.90;15.40;;;;;;;12.06;50.05;94043.19;5051612;28;20207;-75
2022/03/30 05:10:46;;;;;;;21.73;15.30;;;;;;;12.27;49.67;94050.63;5056297;28;20187;-75
2022/03/30 05:13:12;;;;;;;22.57;15.70;;;;;;;12.38;49.01;94056.16;5061576;28;20417;-75
2022/03/30 05:15:37;;;;;;;22.23;14.77;;;;;;;12.09;48.89;94053.25;5047655;28;20551;-75
2022/03/30 05:18:03;;;;;;;19.33;15.40;;;;;;;12.01;50.19;94056.97;5033837;28;20187;-75
2022/03/30 05:20:28;;;;;;;27.60;17.73;;;;;;;11.70;50.66;94056.03;5053090;28;20190;-75
2022/03/30 05:22:54;;;;;;;25.10;17.87;;;;;;;12.00;50.62;94050.09;5065409;28;20198;-75
2022/03/30 05:25:20;;;;;;;23.80;17.17;;;;;;;12.30;49.61;94052.81;5046210;28;20187;-75
2022/03/30 05:27:46;;;;;;;18.60;15.30;;;;;;;12.42;49.12;94047.59;5039466;28;20190;-75
2022/03/30 05:30:12;;;;;;;20.53;16.03;;;;;;;12.81;47.69;94052.59;5065728;28;20174;-75
2022/03/30 05:32:38;;;;;;;25.33;16.80;;;;;;;12.76;48.17;94047.22;5038332;28;20489;-75
2022/03/30 05:35:05;;;;;;;29.37;19.33;;;;;;;12.65;48.42;94046.94;5049876;28;20432;-75
2022/03/30 05:37:31;;;;;;;33.37;19.23;;;;;;;12.95;47.97;94046.13;5065103;28;20175;-74
2022/03/30 05:39:57;;;;;;;33.13;19.13;;;;;;;13.09;48.22;94042.28;5065348;28;20447;-75
2022/03/30 05:42:22;;;;;;;29.87;17.70;;;;;;;12.45;49.17;94046.38;5047331;28;20417;-75
2022/03/30 05:44:49;;;;;;;29.10;19.80;;;;;;;12.82;48.06;94048.94;5047073;28;20237;-74
2022/03/30 05:47:14;;;;;;;24.23;18.07;;;;;;;13.37;47.11;94038.25;5052266;28;20193;-75
2022/03/30 05:49:41;;;;;;;23.20;18.40;;;;;;;13.16;46.86;94041.38;5059210;28;20428;-75
2022/03/30 05:52:08;;;;;;;29.90;17.40;;;;;;;13.32;46.81;94046.03;5065032;28;20238;-75
2022/03/30 05:54:35;;;;;;;28.03;20.00;;;;;;;13.61;45.49;94040.91;5035600;28;21319;-75
2022/03/30 05:57:00;;;;;;;37.93;17.30;;;;;;;13.77;45.70;94042.88;5065003;28;20421;-76
2022/03/30 05:59:27;;;;;;;33.00;19.20;;;;;;;14.15;45.17;94044.22;5065181;28;20483;-76
2022/03/30 06:01:52;;;;;;;26.03;19.03;;;;;;;14.34;44.65;94041.44;5050583;28;20182;-75
2022/03/30 06:04:18;;;;;;;25.07;19.50;;;;;;;14.35;44.80;94043.03;5055951;28;20489;-75
2022/03/30 06:06:43;;;;;;;30.40;19.10;;;;;;;14.48;43.53;94050.66;5054650;28;20189;-75
2022/03/30 06:09:09;;;;;;;25.40;22.70;;;;;;;14.61;43.81;94050.44;5034066;28;20426;-75
2022/03/30 06:11:34;;;;;;;26.07;20.07;;;;;;;14.80;43.82;94039.72;5050395;28;20182;-75
2022/03/30 06:14:00;;;;;;;31.20;19.77;;;;;;;14.94;43.13;94041.03;5050399;28;20183;-75
2022/03/30 06:16:27;;;;;;;25.57;18.63;;;;;;;14.87;43.08;94047.47;5054985;28;20514;-75
2022/03/30 06:18:54;;;;;;;25.77;17.37;;;;;;;14.90;42.88;94044.38;5055268;28;20189;-75
2022/03/30 06:21:20;;;;;;;22.00;16.90;;;;;;;15.19;42.58;94040.66;5050822;28;20464;-75
2022/03/30 06:23:46;;;;;;;20.00;17.63;;;;;;;15.39;41.95;94042.84;5032376;28;20442;-75
2022/03/30 06:26:11;;;;;;;22.23;18.07;;;;;;;15.43;41.65;94041.34;5054177;28;20440;-75
2022/03/30 06:28:37;;;;;;;20.00;16.80;;;;;;;15.59;41.62;94046.84;5055879;28;20186;-75
2022/03/30 06:31:03;;;;;;;27.17;18.80;;;;;;;15.59;41.98;94047.66;5049714;28;20183;-75
2022/03/30 06:33:29;;;;;;;20.57;16.50;;;;;;;15.20;41.58;94046.75;5052589;28;20175;-75
2022/03/30 06:35:55;;;;;;;26.73;16.93;;;;;;;15.19;42.37;94053.84;5059030;28;20453;-75
2022/03/30 06:38:21;;;;;;;26.30;17.90;;;;;;;15.23;42.68;94048.91;5049257;28;20437;-75
2022/03/30 06:40:47;;;;;;;21.30;17.97;;;;;;;15.63;41.96;94058.50;5059353;28;20447;-75
2022/03/30 06:43:14;;;;;;;23.13;16.57;;;;;;;15.83;41.60;94060.69;5043937;28;20190;-75
2022/03/30 06:45:39;;;;;;;27.00;17.30;;;;;;;16.07;40.80;94063.97;5040553;28;20441;-75
2022/03/30 06:48:06;;;;;;;20.20;17.50;;;;;;;16.35;40.04;94067.47;5058044;28;20421;-75
2022/03/30 06:50:32;;;;;;;24.10;15.10;;;;;;;15.66;41.51;94065.94;5058796;28;20199;-75
2022/03/30 06:52:59;;;;;;;27.67;15.97;;;;;;;15.78;41.72;94068.53;5042225;28;20457;-75
2022/03/30 06:55:25;;;;;;;23.90;15.60;;;;;;;15.91;41.00;94070.06;5037713;28;20939;-75
2022/03/30 06:57:51;;;;;;;22.87;14.50;;;;;;;16.19;41.16;94067.28;5080640;28;20478;-75
2022/03/30 07:00:17;;;;;;;23.73;16.53;;;;;;;16.45;40.18;94070.28;5047337;28;20434;-75
2022/03/30 07:02:43;;;;;;;25.47;15.37;;;;;;;16.45;39.51;94074.72;5046286;28;20256;-75
2022/03/30 07:05:11;;;;;;;27.63;16.77;;;;;;;16.16;40.71;94069.59;5041977;28;20445;-75
2022/03/30 07:10:23;;;;;;;22.53;16.37;;;;;;;16.31;40.13;94069.03;5062378;28;20458;-75
2022/03/30 07:12:51;;;;;;;26.90;16.93;;;;;;;16.52;39.89;94062.97;5062250;28;20401;-75
2022/03/30 07:15:18;;;;;;;23.53;15.47;;;;;;;16.56;39.79;94060.59;5047291;28;20433;-75
2022/03/30 07:17:48;;;;;;;19.13;16.40;;;;;;;16.37;40.13;94062.75;5057926;28;20483;-75
2022/03/30 07:20:14;;;;;;;21.23;18.17;;;;;;;16.35;39.87;94049.81;5039941;28;20445;-75
2022/03/30 07:22:41;;;;;;;22.27;17.30;;;;;;;16.81;39.54;94056.66;5054210;28;20428;-75
2022/03/30 07:25:08;;;;;;;30.93;18.37;;;;;;;16.65;39.59;94055.72;5059949;28;20856;-75
2022/03/30 07:27:38;;;;;;;23.77;17.00;;;;;;;16.78;39.46;94050.03;5061268;28;20471;-76
2022/03/30 07:30:06;;;;;;;25.27;17.60;;;;;;;16.86;39.18;94049.63;5061849;28;20437;-76
2022/03/30 07:32:40;;;;;;;23.40;17.27;;;;;;;17.23;38.61;94043.66;5046607;28;20467;-75
2022/03/30 07:35:07;;;;;;;21.40;18.97;;;;;;;17.47;37.74;94054.72;5041512;28;20429;-75
2022/03/30 07:37:33;;;;;;;29.23;18.67;;;;;;;17.62;37.69;94048.75;5038454;28;20461;-75
2022/03/30 07:39:59;;;;;;;23.90;16.70;;;;;;;17.83;37.07;94048.91;5054989;28;20448;-75
2022/03/30 07:42:25;;;;;;;23.93;18.00;;;;;;;17.80;37.42;94054.72;5041332;28;20273;-76
2022/03/30 07:44:51;;;;;;;24.93;17.33;;;;;;;16.98;39.22;94052.16;5055795;28;20533;-74
2022/03/30 07:47:17;;;;;;;21.30;17.67;;;;;;;17.30;38.50;94049.56;5051976;28;20413;-75
2022/03/30 07:49:43;;;;;;;25.67;18.10;;;;;;;17.83;37.55;94052.38;5038850;28;20191;-75
2022/03/30 07:52:09;;;;;;;21.20;16.63;;;;;;;17.78;37.86;94049.66;5043761;28;20417;-75
2022/03/30 07:54:37;;;;;;;22.53;17.23;;;;;;;18.31;36.53;94047.13;5065378;28;20223;-75
2022/03/30 07:57:03;;;;;;;20.73;18.10;;;;;;;18.88;36.31;94046.31;5063059;28;20441;-75
2022/03/30 07:59:28;;;;;;;21.03;17.90;;;;;;;18.95;35.94;94047.91;5057482;28;20880;-75
2022/03/30 08:01:57;;;;;;;22.70;17.30;;;;;;;19.15;34.97;94041.88;5032262;28;20580;-75
2022/03/30 08:04:22;;;;;;;25.20;18.33;;;;;;;19.20;35.20;94037.38;5063867;28;20203;-75
2022/03/30 08:06:48;;;;;;;26.80;18.70;;;;;;;18.14;36.78;94040.13;5048894;28;20935;-75
2022/03/30 08:09:13;;;;;;;24.20;17.60;;;;;;;18.90;35.40;94033.59;5063731;28;20182;-75
2022/03/30 08:11:42;;;;;;;23.47;17.50;;;;;;;19.43;34.23;94040.59;5054163;28;20206;-75
2022/03/30 08:14:07;;;;;;;25.93;19.83;;;;;;;18.97;34.90;94032.53;5060360;28;20207;-75
2022/03/30 08:16:33;;;;;;;24.33;18.37;;;;;;;18.86;35.72;94032.53;5040806;28;20441;-75
2022/03/30 08:18:59;;;;;;;25.33;18.90;;;;;;;18.63;35.99;94038.22;5063048;28;20183;-75
2022/03/30 08:24:09;;;;;;;43.57;20.83;;;;;;;19.64;34.07;94031.56;5066527;28;21210;-78
2022/03/30 08:26:37;;;;;;;34.63;20.03;;;;;;;19.97;33.45;94029.44;5048657;28;20430;-75
2022/03/30 08:29:03;;;;;;;24.50;19.87;;;;;;;20.15;33.22;94032.59;5044191;28;20203;-76
2022/03/30 08:31:28;;;;;;;25.63;20.30;;;;;;;20.63;32.23;94020.50;5031097;28;20429;-76
2022/03/30 08:33:54;;;;;;;23.63;19.50;;;;;;;21.17;31.47;94012.75;5058423;28;20437;-74
2022/03/30 08:36:20;;;;;;;25.30;19.30;;;;;;;21.06;31.46;94012.06;5048264;28;20179;-75
2022/03/30 08:38:45;;;;;;;26.67;20.80;;;;;;;20.72;31.70;94012.75;5032042;28;20197;-75
2022/03/30 08:41:11;;;;;;;28.40;20.73;;;;;;;20.28;32.72;94005.47;5045761;28;20459;-75
2022/03/30 08:43:39;;;;;;;29.03;21.23;;;;;;;20.77;32.03;94004.78;5035440;28;20211;-76
2022/03/30 08:46:04;;;;;;;31.47;17.77;;;;;;;21.09;31.58;94003.50;5018105;28;20623;-75
2022/03/30 08:48:30;;;;;;;26.13;20.30;;;;;;;21.55;30.53;93989.09;5034800;28;20435;-75
2022/03/30 08:50:59;;;;;;;21.80;18.63;;;;;;;21.42;30.29;93980.66;5059112;28;20270;-75
2022/03/30 08:53:26;;;;;;;21.37;18.93;;;;;;;21.23;31.03;93980.53;5042080;28;20230;-75
2022/03/30 08:55:52;;;;;;;27.13;18.33;;;;;;;21.34;30.90;93980.44;5040396;28;21019;-75
2022/03/30 08:58:18;;;;;;;31.43;17.80;;;;;;;20.53;31.67;93977.19;5047491;28;20778;-75
2022/03/30 09:00:43;;;;;;;27.47;18.87;;;;;;;20.98;30.63;93978.03;5045349;28;20484;-75
2022/03/30 09:03:09;;;;;;;26.73;18.27;;;;;;;21.49;30.57;93967.03;5064051;28;20252;-75
2022/03/30 09:05:39;;;;;;;23.03;17.67;;;;;;;21.81;29.92;93968.34;5048530;28;20243;-75
2022/03/30 09:08:15;;;;;;;24.97;18.20;;;;;;;20.79;30.86;93965.41;5034946;28;20194;-75
2022/03/30 09:10:43;;;;;;;26.40;16.87;;;;;;;21.57;30.05;93969.13;5042561;28;20445;-75
2022/03/30 09:13:10;;;;;;;25.07;18.00;;;;;;;21.41;29.97;93963.09;5066004;28;20409;-76
2022/03/30 09:15:38;;;;;;;23.17;15.87;;;;;;;21.95;29.02;93963.16;5065497;28;20451;-76
2022/03/30 09:18:06;;;;;;;22.13;14.97;;;;;;;22.83;28.05;93957.63;5065206;28;20421;-75
2022/03/30 09:20:34;;;;;;;26.30;13.90;;;;;;;22.58;27.53;93943.53;5042718;28;20440;-75
2022/03/30 09:23:00;;;;;;;22.03;13.50;;;;;;;22.58;27.69;93938.22;5062292;28;20425;-75
2022/03/30 09:25:28;;;;;;;16.90;13.67;;;;;;;22.99;27.51;93937.63;5032139;28;20541;-75
2022/03/30 09:27:55;;;;;;;17.93;13.60;;;;;;;23.36;26.61;93941.38;5031749;28;20473;-76
2022/03/30 09:30:23;;;;;;;17.17;12.50;;;;;;;22.87;26.66;93934.59;5027946;28;20451;-76
2022/03/30 09:32:50;;;;;;;16.70;12.20;;;;;;;22.79;26.76;93928.84;5050786;28;20438;-76
2022/03/30 09:35:38;;;;;;;19.10;11.57;;;;;;;23.28;26.24;93939.38;5066003;28;20429;-76
2022/03/30 09:38:10;;;;;;;11.10;9.80;;;;;;;23.43;25.60;93931.13;5048620;28;20426;-75
2022/03/30 09:40:35;;;;;;;11.77;10.23;;;;;;;24.25;24.54;93920.84;5059396;28;20534;-75
2022/03/30 09:43:22;;;;;;;18.07;9.57;;;;;;;24.42;23.88;93907.66;5043575;28;20536;-76
2022/03/30 09:46:09;;;;;;;15.20;9.60;;;;;;;24.73;23.44;93897.09;5051540;28;20183;-76
2022/03/30 09:48:53;;;;;;;20.07;11.50;;;;;;;25.02;23.27;93882.50;5024700;28;20440;-75
2022/03/30 09:51:25;;;;;;;15.50;9.17;;;;;;;23.86;24.35;93882.81;5015239;28;20419;-75
2022/03/30 09:53:51;;;;;;;16.97;9.20;;;;;;;23.41;24.70;93882.53;5046959;28;20495;-75
2022/03/30 09:56:24;;;;;;;12.87;8.70;;;;;;;24.28;23.94;93878.25;5030784;28;20559;-75
2022/03/30 09:58:59;;;;;;;13.93;7.97;;;;;;;23.72;23.91;93887.34;5027943;28;20406;-76
2022/03/30 10:01:29;;;;;;;13.93;10.20;;;;;;;23.92;23.75;93883.50;5058533;28;20418;-75
2022/03/30 10:04:04;;;;;;;12.23;7.07;;;;;;;23.04;24.00;93875.41;5038130;28;20468;-76
2022/03/30 10:06:35;;;;;;;10.00;3.37;;;;;;;22.36;24.53;93856.88;5050625;28;20449;-75
2022/03/30 10:09:01;;;;;;;10.90;6.97;;;;;;;22.89;23.83;93863.06;5048931;28;20432;-76
2022/03/30 10:11:28;;;;;;;12.03;5.63;;;;;;;22.57;23.87;93845.94;5065377;28;20489;-75
2022/03/30 10:13:55;;;;;;;11.30;4.93;;;;;;;22.58;23.84;93858.19;5046161;28;20613;-75
2022/03/30 10:16:25;;;;;;;10.07;5.63;;;;;;;23.24;23.05;93855.59;5040490;28;20447;-75
2022/03/30 10:18:51;;;;;;;13.13;6.13;;;;;;;23.15;23.58;93840.25;5051434;28;20445;-75
2022/03/30 10:21:39;;;;;;;10.83;6.20;;;;;;;22.23;24.38;93842.38;5037419;28;20457;-75
2022/03/30 10:24:04;;;;;;;7.50;5.40;;;;;;;21.58;25.35;93842.88;5046997;28;20488;-75
2022/03/30 10:26:38;;;;;;;7.80;5.57;;;;;;;21.23;25.90;93854.66;5068897;28;20428;-75
2022/03/30 10:29:15;;;;;;;8.33;3.97;;;;;;;21.68;25.16;93843.84;5038238;28;20183;-75
2022/03/30 10:31:41;;;;;;;8.43;5.20;;;;;;;22.09;24.56;93841.50;5025974;28;20528;-75
2022/03/30 10:34:26;;;;;;;6.10;5.47;;;;;;;22.75;23.62;93829.13;5030406;28;20932;-75
2022/03/30 10:37:11;;;;;;;9.67;7.10;;;;;;;23.11;23.78;93828.56;5028974;28;20425;-75
2022/03/30 10:40:03;;;;;;;9.40;6.67;;;;;;;24.10;22.59;93829.16;5050743;28;20425;-75
2022/03/30 10:42:54;;;;;;;13.30;7.30;;;;;;;24.54;21.93;93826.91;5068361;28;20424;-75
2022/03/30 10:45:30;;;;;;;11.93;6.27;;;;;;;23.52;22.57;93827.88;5012638;28;20460;-75
2022/03/30 10:48:09;;;;;;;7.20;5.23;;;;;;;23.82;22.01;93825.69;5050812;28;20426;-76
2022/03/30 10:50:43;;;;;;;8.20;5.07;;;;;;;24.40;21.72;93818.06;5068445;28;20444;-76
2022/03/30 10:53:39;;;;;;;11.70;6.23;;;;;;;23.76;22.13;93824.19;5068252;28;20466;-75
2022/03/30 10:56:07;;;;;;;14.47;6.10;;;;;;;23.39;22.74;93818.75;5040374;28;20473;-75
2022/03/30 10:58:34;;;;;;;11.20;6.30;;;;;;;24.04;22.40;93816.97;5048451;28;20427;-76
2022/03/30 11:01:14;;;;;;;10.20;5.07;;;;;;;23.22;22.65;93807.84;5048601;28;20412;-75
2022/03/30 11:04:18;;;;;;;9.47;4.83;;;;;;;23.02;22.49;93808.16;5030672;28;20504;-75
2022/03/30 11:07:07;;;;;;;12.33;5.80;;;;;;;23.30;22.21;93804.47;5014901;28;20424;-75
2022/03/30 11:09:34;;;;;;;42.37;7.83;;;;;;;22.77;22.89;93802.94;5054600;28;20433;-75
2022/03/30 11:12:14;;;;;;;15.80;4.70;;;;;;;22.91;23.15;93797.66;5049975;28;20419;-75
2022/03/30 11:14:45;;;;;;;20.03;6.17;;;;;;;23.22;23.17;93807.03;5044478;28;21454;-76
2022/03/30 11:17:13;;;;;;;13.23;6.00;;;;;;;22.97;23.26;93799.16;5060442;28;20431;-75
2022/03/30 11:19:53;;;;;;;9.47;3.97;;;;;;;22.96;22.66;93812.78;5049071;28;20434;-76
2022/03/30 11:22:21;;;;;;;19.90;5.90;;;;;;;21.87;23.84;93796.72;5037082;28;20798;-75
2022/03/30 11:25:18;;;;;;;25.13;7.40;;;;;;;21.89;23.75;93797.22;5037662;28;20468;-75
2022/03/30 11:27:45;;;;;;;10.33;4.63;;;;;;;22.16;23.73;93798.50;5034123;28;20426;-75
2022/03/30 11:30:18;;;;;;;15.60;6.33;;;;;;;21.91;23.52;93810.28;5057260;28;20765;-76